createdAt,value
2019-02-08T00:00:51.000Z,24
2019-02-08T00:01:51.000Z,24
2019-02-08T00:02:51.000Z,24
2019-02-08T00:03:51.000Z,24
2019-02-08T00:05:51.000Z,24
2019-02-08T00:06:51.000Z,24
2019-02-08T00:08:51.000Z,24
2019-02-08T00:09:51.000Z,24
2019-02-08T00:11:51.000Z,24
2019-02-08T00:12:51.000Z,24
2019-02-08T00:13:51.000Z,24
2019-02-08T00:14:51.000Z,24
2019-02-08T00:15:51.000Z,24
2019-02-08T00:16:51.000Z,24
2019-02-08T00:17:51.000Z,24
2019-02-08T00:18:51.000Z,24
2019-02-08T00:19:51.000Z,24
2019-02-08T00:20:51.000Z,24
2019-02-08T00:21:51.000Z,24
2019-02-08T00:22:51.000Z,24
2019-02-08T00:23:51.000Z,24
2019-02-08T00:24:51.000Z,24
2019-02-08T00:26:51.000Z,24
2019-02-08T00:27:51.000Z,24
2019-02-08T00:28:51.000Z,24
2019-02-08T00:29:51.000Z,24
2019-02-08T00:30:51.000Z,24
2019-02-08T00:31:51.000Z,24
2019-02-08T00:32:51.000Z,24
2019-02-08T00:33:51.000Z,24
2019-02-08T00:34:51.000Z,24
2019-02-08T00:35:51.000Z,24
2019-02-08T00:37:51.000Z,24
2019-02-08T00:38:51.000Z,24
2019-02-08T00:39:51.000Z,24
2019-02-08T00:40:51.000Z,24
2019-02-08T00:41:51.000Z,24
2019-02-08T00:42:51.000Z,24
2019-02-08T00:43:51.000Z,24
2019-02-08T00:44:51.000Z,24
2019-02-08T00:45:51.000Z,24
2019-02-08T00:46:51.000Z,24
2019-02-08T00:47:51.000Z,24
2019-02-08T00:48:51.000Z,24
2019-02-08T00:49:51.000Z,24
2019-02-08T00:50:51.000Z,24
2019-02-08T00:51:51.000Z,24
2019-02-08T00:52:51.000Z,24
2019-02-08T00:53:51.000Z,24
2019-02-08T00:54:51.000Z,24
2019-02-08T00:56:51.000Z,24
2019-02-08T00:57:51.000Z,24
2019-02-08T00:59:51.000Z,24
2019-02-08T01:01:51.000Z,24
2019-02-08T01:02:51.000Z,24
2019-02-08T01:03:51.000Z,24
2019-02-08T01:04:51.000Z,24
2019-02-08T01:05:51.000Z,24
2019-02-08T01:06:51.000Z,24
2019-02-08T01:07:51.000Z,24
2019-02-08T01:09:51.000Z,24
2019-02-08T01:10:51.000Z,24
2019-02-08T01:11:51.000Z,24
2019-02-08T01:12:51.000Z,24
2019-02-08T01:13:51.000Z,24
2019-02-08T01:14:51.000Z,24
2019-02-08T01:15:51.000Z,24
2019-02-08T01:16:51.000Z,24
2019-02-08T01:17:51.000Z,24
2019-02-08T01:18:51.000Z,24
2019-02-08T01:19:51.000Z,24
2019-02-08T01:20:51.000Z,24
2019-02-08T01:21:51.000Z,24
2019-02-08T01:22:51.000Z,24
2019-02-08T01:23:51.000Z,24
2019-02-08T01:24:51.000Z,24
2019-02-08T01:25:51.000Z,24
2019-02-08T01:26:51.000Z,24
2019-02-08T01:27:51.000Z,24
2019-02-08T01:28:51.000Z,24
2019-02-08T01:29:51.000Z,24
2019-02-08T01:31:51.000Z,24
2019-02-08T01:32:51.000Z,24
2019-02-08T01:33:51.000Z,24
2019-02-08T01:34:51.000Z,24
2019-02-08T01:35:51.000Z,24
2019-02-08T01:36:51.000Z,24
2019-02-08T01:37:51.000Z,24
2019-02-08T01:38:51.000Z,24
2019-02-08T01:39:51.000Z,24
2019-02-08T01:40:51.000Z,24
2019-02-08T01:41:51.000Z,24
2019-02-08T01:42:51.000Z,24
2019-02-08T01:43:51.000Z,24
2019-02-08T01:44:51.000Z,24
2019-02-08T01:45:51.000Z,24
2019-02-08T01:46:51.000Z,24
2019-02-08T01:47:51.000Z,24
2019-02-08T01:48:51.000Z,24
2019-02-08T01:49:51.000Z,24
2019-02-08T01:50:51.000Z,24
2019-02-08T01:51:51.000Z,24
2019-02-08T01:52:51.000Z,24
2019-02-08T01:53:51.000Z,24
2019-02-08T01:54:51.000Z,24
2019-02-08T01:55:51.000Z,24
2019-02-08T01:56:51.000Z,24
2019-02-08T01:57:51.000Z,24
2019-02-08T01:58:51.000Z,24
2019-02-08T02:00:51.000Z,24
2019-02-08T02:01:51.000Z,24
2019-02-08T02:02:51.000Z,24
2019-02-08T02:03:51.000Z,24
2019-02-08T02:04:51.000Z,24
2019-02-08T02:05:51.000Z,24
2019-02-08T02:06:51.000Z,24
2019-02-08T02:07:51.000Z,24
2019-02-08T02:08:51.000Z,24
2019-02-08T02:09:51.000Z,24
2019-02-08T02:10:51.000Z,24
2019-02-08T02:11:51.000Z,24
2019-02-08T02:12:51.000Z,24
2019-02-08T02:13:51.000Z,24
2019-02-08T02:14:51.000Z,24
2019-02-08T02:15:51.000Z,24
2019-02-08T02:17:51.000Z,24
2019-02-08T02:18:51.000Z,24
2019-02-08T02:19:51.000Z,24
2019-02-08T02:20:51.000Z,24
2019-02-08T02:21:51.000Z,24
2019-02-08T02:22:51.000Z,24
2019-02-08T02:23:51.000Z,24
2019-02-08T02:24:51.000Z,24
2019-02-08T02:25:51.000Z,24
2019-02-08T02:26:51.000Z,24
2019-02-08T02:27:51.000Z,24
2019-02-08T02:29:51.000Z,24
2019-02-08T02:30:51.000Z,24
2019-02-08T02:31:51.000Z,24
2019-02-08T02:32:51.000Z,24
2019-02-08T02:33:51.000Z,24
2019-02-08T02:34:51.000Z,24
2019-02-08T02:35:51.000Z,24
2019-02-08T02:36:51.000Z,24
2019-02-08T02:37:51.000Z,24
2019-02-08T02:38:51.000Z,24
2019-02-08T02:39:51.000Z,24
2019-02-08T02:40:51.000Z,24
2019-02-08T02:41:51.000Z,24
2019-02-08T02:42:51.000Z,24
2019-02-08T02:43:51.000Z,24
2019-02-08T02:44:51.000Z,24
2019-02-08T02:45:51.000Z,24
2019-02-08T02:46:51.000Z,24
2019-02-08T02:47:51.000Z,24
2019-02-08T02:48:51.000Z,24
2019-02-08T02:49:51.000Z,24
2019-02-08T02:50:51.000Z,24
2019-02-08T02:51:51.000Z,24
2019-02-08T02:52:51.000Z,24
2019-02-08T02:53:51.000Z,24
2019-02-08T02:54:51.000Z,24
2019-02-08T02:56:51.000Z,24
2019-02-08T02:57:51.000Z,24
2019-02-08T02:58:51.000Z,24
2019-02-08T02:59:51.000Z,24
2019-02-08T03:01:51.000Z,24
2019-02-08T03:02:51.000Z,24
2019-02-08T03:03:50.000Z,24
2019-02-08T03:04:50.000Z,24
2019-02-08T03:05:50.000Z,24
2019-02-08T03:06:50.000Z,24
2019-02-08T03:07:50.000Z,24
2019-02-08T03:08:50.000Z,24
2019-02-08T03:09:50.000Z,24
2019-02-08T03:10:50.000Z,24
2019-02-08T03:11:50.000Z,24
2019-02-08T03:12:50.000Z,24
2019-02-08T03:14:50.000Z,24
2019-02-08T03:15:50.000Z,24
2019-02-08T03:17:50.000Z,24
2019-02-08T03:18:50.000Z,24
2019-02-08T03:19:50.000Z,24
2019-02-08T03:20:50.000Z,24
2019-02-08T03:21:50.000Z,24
2019-02-08T03:22:50.000Z,24
2019-02-08T03:23:50.000Z,24
2019-02-08T03:24:50.000Z,24
2019-02-08T03:25:50.000Z,24
2019-02-08T03:26:50.000Z,24
2019-02-08T03:27:50.000Z,24
2019-02-08T03:28:50.000Z,24
2019-02-08T03:29:50.000Z,24
2019-02-08T03:30:50.000Z,24
2019-02-08T03:31:50.000Z,24
2019-02-08T03:32:50.000Z,24
2019-02-08T03:33:50.000Z,24
2019-02-08T03:34:50.000Z,24
2019-02-08T03:35:50.000Z,24
2019-02-08T03:36:50.000Z,24
2019-02-08T03:37:50.000Z,24
2019-02-08T03:38:50.000Z,24
2019-02-08T03:39:50.000Z,24
2019-02-08T03:40:50.000Z,24
2019-02-08T03:41:50.000Z,24
2019-02-08T03:42:50.000Z,24
2019-02-08T03:43:50.000Z,24
2019-02-08T03:44:50.000Z,24
2019-02-08T03:45:50.000Z,24
2019-02-08T03:47:50.000Z,24
2019-02-08T03:48:50.000Z,24
2019-02-08T03:49:50.000Z,24
2019-02-08T03:50:50.000Z,24
2019-02-08T03:51:50.000Z,24
2019-02-08T03:52:50.000Z,24
2019-02-08T03:53:50.000Z,24
2019-02-08T03:54:50.000Z,24
2019-02-08T03:55:50.000Z,24
2019-02-08T03:56:50.000Z,24
2019-02-08T03:57:50.000Z,24
2019-02-08T03:58:50.000Z,24
2019-02-08T03:59:50.000Z,24
2019-02-08T04:00:50.000Z,24
2019-02-08T04:01:50.000Z,24
2019-02-08T04:02:50.000Z,24
2019-02-08T04:03:50.000Z,24
2019-02-08T04:05:50.000Z,24
2019-02-08T04:07:51.000Z,24
2019-02-08T04:08:51.000Z,24
2019-02-08T04:09:51.000Z,24
2019-02-08T04:10:51.000Z,24
2019-02-08T04:11:51.000Z,24
2019-02-08T04:12:51.000Z,24
2019-02-08T04:13:51.000Z,24
2019-02-08T04:14:51.000Z,24
2019-02-08T04:15:51.000Z,24
2019-02-08T04:16:51.000Z,24
2019-02-08T04:17:51.000Z,24
2019-02-08T04:18:51.000Z,24
2019-02-08T04:19:51.000Z,24
2019-02-08T04:20:51.000Z,24
2019-02-08T04:21:51.000Z,24
2019-02-08T04:22:51.000Z,24
2019-02-08T04:23:51.000Z,24
2019-02-08T04:24:51.000Z,24
2019-02-08T04:25:51.000Z,24
2019-02-08T04:26:51.000Z,24
2019-02-08T04:27:51.000Z,24
2019-02-08T04:28:51.000Z,25
2019-02-08T04:29:51.000Z,25
2019-02-08T04:30:51.000Z,25
2019-02-08T04:31:51.000Z,25
2019-02-08T04:33:51.000Z,26
2019-02-08T04:35:51.000Z,26
2019-02-08T04:36:51.000Z,27
2019-02-08T04:37:51.000Z,27
2019-02-08T04:38:51.000Z,27
2019-02-08T04:39:51.000Z,27
2019-02-08T04:40:51.000Z,27
2019-02-08T04:42:51.000Z,28
2019-02-08T04:43:51.000Z,28
2019-02-08T04:44:51.000Z,28
2019-02-08T04:45:51.000Z,28
2019-02-08T04:46:51.000Z,28
2019-02-08T04:47:51.000Z,28
2019-02-08T04:48:51.000Z,28
2019-02-08T04:49:51.000Z,28
2019-02-08T04:50:51.000Z,28
2019-02-08T04:51:51.000Z,28
2019-02-08T04:52:51.000Z,28
2019-02-08T04:54:51.000Z,28
2019-02-08T04:55:51.000Z,28
2019-02-08T04:56:51.000Z,28
2019-02-08T04:57:51.000Z,28
2019-02-08T04:58:51.000Z,28
2019-02-08T04:59:51.000Z,28
2019-02-08T05:01:51.000Z,28
2019-02-08T05:02:51.000Z,28
2019-02-08T05:03:51.000Z,28
2019-02-08T05:04:51.000Z,28
2019-02-08T05:05:51.000Z,28
2019-02-08T05:06:51.000Z,28
2019-02-08T05:07:51.000Z,28
2019-02-08T05:08:51.000Z,28
2019-02-08T05:09:51.000Z,28
2019-02-08T05:10:51.000Z,28
2019-02-08T05:11:51.000Z,28
2019-02-08T05:12:51.000Z,28
2019-02-08T05:13:51.000Z,28
2019-02-08T05:14:51.000Z,28
2019-02-08T05:15:51.000Z,27
2019-02-08T05:16:51.000Z,27
2019-02-08T05:17:51.000Z,27
2019-02-08T05:19:51.000Z,27
2019-02-08T05:20:51.000Z,27
2019-02-08T05:21:51.000Z,27
2019-02-08T05:22:51.000Z,27
2019-02-08T05:23:51.000Z,27
2019-02-08T05:24:51.000Z,27
2019-02-08T05:25:51.000Z,27
2019-02-08T05:26:51.000Z,27
2019-02-08T05:27:51.000Z,27
2019-02-08T05:28:51.000Z,27
2019-02-08T05:30:51.000Z,27
2019-02-08T05:31:51.000Z,27
2019-02-08T05:32:51.000Z,27
2019-02-08T05:33:51.000Z,27
2019-02-08T05:34:51.000Z,27
2019-02-08T05:35:51.000Z,27
2019-02-08T05:36:51.000Z,27
2019-02-08T05:37:51.000Z,27
2019-02-08T05:38:51.000Z,27
2019-02-08T05:39:51.000Z,27
2019-02-08T05:40:51.000Z,27
2019-02-08T05:41:51.000Z,27
2019-02-08T05:42:51.000Z,27
2019-02-08T05:43:51.000Z,27
2019-02-08T05:44:51.000Z,27
2019-02-08T05:45:51.000Z,27
2019-02-08T05:46:51.000Z,27
2019-02-08T05:47:51.000Z,27
2019-02-08T05:48:51.000Z,27
2019-02-08T05:49:51.000Z,27
2019-02-08T05:51:51.000Z,27
2019-02-08T05:52:51.000Z,27
2019-02-08T05:53:51.000Z,27
2019-02-08T05:54:51.000Z,27
2019-02-08T05:55:51.000Z,27
2019-02-08T05:56:51.000Z,27
2019-02-08T05:58:51.000Z,27
2019-02-08T05:59:51.000Z,27
2019-02-08T06:00:51.000Z,27
2019-02-08T06:01:51.000Z,27
2019-02-08T06:02:51.000Z,27
2019-02-08T06:03:51.000Z,27
2019-02-08T06:05:51.000Z,27
2019-02-08T06:06:51.000Z,27
2019-02-08T06:08:51.000Z,27
2019-02-08T06:09:51.000Z,27
2019-02-08T06:10:51.000Z,27
2019-02-08T06:11:51.000Z,27
2019-02-08T06:12:51.000Z,27
2019-02-08T06:13:51.000Z,27
2019-02-08T06:14:51.000Z,27
2019-02-08T06:15:51.000Z,27
2019-02-08T06:16:51.000Z,27
2019-02-08T06:17:51.000Z,27
2019-02-08T06:18:51.000Z,27
2019-02-08T06:19:51.000Z,27
2019-02-08T06:21:51.000Z,27
2019-02-08T06:22:51.000Z,27
2019-02-08T06:23:51.000Z,26
2019-02-08T06:24:51.000Z,26
2019-02-08T06:26:51.000Z,26
2019-02-08T06:27:51.000Z,26
2019-02-08T06:28:51.000Z,26
2019-02-08T06:29:51.000Z,26
2019-02-08T06:31:51.000Z,26
2019-02-08T06:32:51.000Z,26
2019-02-08T06:33:51.000Z,26
2019-02-08T06:34:51.000Z,26
2019-02-08T06:35:51.000Z,26
2019-02-08T06:36:51.000Z,26
2019-02-08T06:37:51.000Z,26
2019-02-08T06:38:51.000Z,26
2019-02-08T06:39:51.000Z,26
2019-02-08T06:40:51.000Z,26
2019-02-08T06:41:51.000Z,26
2019-02-08T06:42:51.000Z,26
2019-02-08T06:43:51.000Z,26
2019-02-08T06:44:51.000Z,26
2019-02-08T06:45:51.000Z,26
2019-02-08T06:47:51.000Z,26
2019-02-08T06:48:51.000Z,26
2019-02-08T06:49:51.000Z,26
2019-02-08T06:50:51.000Z,26
2019-02-08T06:51:51.000Z,26
2019-02-08T06:52:51.000Z,26
2019-02-08T06:53:51.000Z,26
2019-02-08T06:54:51.000Z,26
2019-02-08T06:55:51.000Z,26
2019-02-08T06:56:51.000Z,26
2019-02-08T06:57:51.000Z,26
2019-02-08T06:58:51.000Z,26
2019-02-08T06:59:51.000Z,26
2019-02-08T07:00:51.000Z,26
2019-02-08T07:01:51.000Z,26
2019-02-08T07:02:51.000Z,26
2019-02-08T07:03:51.000Z,26
2019-02-08T07:04:51.000Z,26
2019-02-08T07:05:51.000Z,26
2019-02-08T07:06:51.000Z,26
2019-02-08T07:07:51.000Z,26
2019-02-08T07:08:51.000Z,26
2019-02-08T07:09:51.000Z,26
2019-02-08T07:10:51.000Z,26
2019-02-08T07:11:51.000Z,26
2019-02-08T07:12:51.000Z,26
2019-02-08T07:13:51.000Z,26
2019-02-08T07:15:51.000Z,26
2019-02-08T07:16:51.000Z,26
2019-02-08T07:18:51.000Z,26
2019-02-08T07:19:50.000Z,26
2019-02-08T07:20:50.000Z,26
2019-02-08T07:21:50.000Z,26
2019-02-08T07:22:50.000Z,26
2019-02-08T07:23:50.000Z,26
2019-02-08T07:24:50.000Z,26
2019-02-08T07:25:50.000Z,26
2019-02-08T07:26:50.000Z,26
2019-02-08T07:27:50.000Z,26
2019-02-08T07:28:50.000Z,26
2019-02-08T07:29:50.000Z,26
2019-02-08T07:30:50.000Z,26
2019-02-08T07:31:50.000Z,26
2019-02-08T07:32:50.000Z,26
2019-02-08T07:33:50.000Z,26
2019-02-08T07:34:50.000Z,26
2019-02-08T07:35:50.000Z,26
2019-02-08T07:36:50.000Z,25
2019-02-08T07:37:50.000Z,25
2019-02-08T07:38:50.000Z,25
2019-02-08T07:40:50.000Z,25
2019-02-08T07:41:50.000Z,25
2019-02-08T07:42:50.000Z,25
2019-02-08T07:43:50.000Z,25
2019-02-08T07:44:50.000Z,25
2019-02-08T07:46:50.000Z,26
2019-02-08T07:47:50.000Z,26
2019-02-08T07:48:50.000Z,26
2019-02-08T07:49:50.000Z,26
2019-02-08T07:50:50.000Z,26
2019-02-08T07:51:50.000Z,26
2019-02-08T07:52:50.000Z,26
2019-02-08T07:53:50.000Z,26
2019-02-08T07:55:50.000Z,26
2019-02-08T07:56:50.000Z,26
2019-02-08T07:57:50.000Z,26
2019-02-08T07:59:50.000Z,26
2019-02-08T08:00:50.000Z,26
2019-02-08T08:01:50.000Z,26
2019-02-08T08:02:50.000Z,26
2019-02-08T08:03:50.000Z,26
2019-02-08T08:04:50.000Z,26
2019-02-08T08:05:50.000Z,26
2019-02-08T08:06:50.000Z,26
2019-02-08T08:07:50.000Z,26
2019-02-08T08:08:50.000Z,26
2019-02-08T08:09:50.000Z,26
2019-02-08T08:10:50.000Z,26
2019-02-08T08:11:50.000Z,26
2019-02-08T08:12:50.000Z,26
2019-02-08T08:13:50.000Z,26
2019-02-08T08:14:50.000Z,26
2019-02-08T08:15:50.000Z,26
2019-02-08T08:16:50.000Z,26
2019-02-08T08:17:50.000Z,26
2019-02-08T08:18:50.000Z,26
2019-02-08T08:19:50.000Z,26
2019-02-08T08:20:50.000Z,26
2019-02-08T08:22:50.000Z,26
2019-02-08T08:23:50.000Z,26
2019-02-08T08:24:51.000Z,26
2019-02-08T08:25:51.000Z,26
2019-02-08T08:26:51.000Z,26
2019-02-08T08:27:51.000Z,26
2019-02-08T08:28:51.000Z,26
2019-02-08T08:29:51.000Z,26
2019-02-08T08:31:51.000Z,26
2019-02-08T08:32:51.000Z,26
2019-02-08T08:33:51.000Z,26
2019-02-08T08:34:51.000Z,26
2019-02-08T08:35:51.000Z,26
2019-02-08T08:36:51.000Z,26
2019-02-08T08:37:51.000Z,26
2019-02-08T08:38:51.000Z,26
2019-02-08T08:39:51.000Z,26
2019-02-08T08:40:51.000Z,26
2019-02-08T08:41:51.000Z,26
2019-02-08T08:42:51.000Z,26
2019-02-08T08:44:51.000Z,26
2019-02-08T08:45:51.000Z,26
2019-02-08T08:46:51.000Z,26
2019-02-08T08:47:51.000Z,26
2019-02-08T08:48:51.000Z,26
2019-02-08T08:49:51.000Z,26
2019-02-08T08:50:51.000Z,26
2019-02-08T08:51:51.000Z,26
2019-02-08T08:52:51.000Z,26
2019-02-08T08:53:51.000Z,26
2019-02-08T08:54:51.000Z,26
2019-02-08T08:55:51.000Z,26
2019-02-08T08:56:51.000Z,26
2019-02-08T08:57:51.000Z,26
2019-02-08T08:59:51.000Z,26
2019-02-08T09:00:51.000Z,26
2019-02-08T09:01:51.000Z,26
2019-02-08T09:02:51.000Z,26
2019-02-08T09:03:51.000Z,26
2019-02-08T09:04:51.000Z,26
2019-02-08T09:05:51.000Z,26
2019-02-08T09:06:51.000Z,26
2019-02-08T09:07:51.000Z,26
2019-02-08T09:09:51.000Z,26
2019-02-08T09:10:51.000Z,26
2019-02-08T09:11:51.000Z,26
2019-02-08T09:12:51.000Z,26
2019-02-08T09:13:51.000Z,26
2019-02-08T09:14:51.000Z,26
2019-02-08T09:15:51.000Z,26
2019-02-08T09:16:51.000Z,26
2019-02-08T09:17:51.000Z,26
2019-02-08T09:18:51.000Z,26
2019-02-08T09:20:51.000Z,26
2019-02-08T09:21:51.000Z,26
2019-02-08T09:22:51.000Z,26
2019-02-08T09:24:51.000Z,26
2019-02-08T09:25:51.000Z,26
2019-02-08T09:27:51.000Z,26
2019-02-08T09:28:51.000Z,26
2019-02-08T09:29:51.000Z,26
2019-02-08T09:30:51.000Z,25
2019-02-08T09:31:51.000Z,25
2019-02-08T09:32:51.000Z,25
2019-02-08T09:33:51.000Z,25
2019-02-08T09:34:51.000Z,25
2019-02-08T09:35:51.000Z,25
2019-02-08T09:36:51.000Z,25
2019-02-08T09:37:51.000Z,25
2019-02-08T09:38:51.000Z,25
2019-02-08T09:39:51.000Z,25
2019-02-08T09:40:51.000Z,25
2019-02-08T09:41:51.000Z,25
2019-02-08T09:43:51.000Z,25
2019-02-08T09:44:51.000Z,25
2019-02-08T09:45:51.000Z,25
2019-02-08T09:46:51.000Z,25
2019-02-08T09:47:51.000Z,25
2019-02-08T09:49:51.000Z,24
2019-02-08T09:50:51.000Z,24
2019-02-08T09:51:51.000Z,24
2019-02-08T09:52:51.000Z,24
2019-02-08T09:53:51.000Z,24
2019-02-08T09:54:51.000Z,24
2019-02-08T09:55:51.000Z,24
2019-02-08T09:56:51.000Z,24
2019-02-08T09:57:51.000Z,24
2019-02-08T09:58:51.000Z,24
2019-02-08T09:59:51.000Z,24
2019-02-08T10:00:51.000Z,24
2019-02-08T10:01:51.000Z,24
2019-02-08T10:02:51.000Z,24
2019-02-08T10:03:51.000Z,24
2019-02-08T10:04:51.000Z,24
2019-02-08T10:05:51.000Z,24
2019-02-08T10:06:51.000Z,24
2019-02-08T10:07:51.000Z,24
2019-02-08T10:08:51.000Z,24
2019-02-08T10:09:51.000Z,23
2019-02-08T10:10:51.000Z,23
2019-02-08T10:11:51.000Z,23
2019-02-08T10:12:51.000Z,23
2019-02-08T10:13:51.000Z,23
2019-02-08T10:15:51.000Z,23
2019-02-08T10:16:51.000Z,23
2019-02-08T10:17:51.000Z,23
2019-02-08T10:18:51.000Z,23
2019-02-08T10:19:51.000Z,23
2019-02-08T10:20:51.000Z,23
2019-02-08T10:21:51.000Z,23
2019-02-08T10:22:51.000Z,23
2019-02-08T10:24:51.000Z,23
2019-02-08T10:25:51.000Z,23
2019-02-08T10:27:51.000Z,23
2019-02-08T10:28:51.000Z,23
2019-02-08T10:29:51.000Z,23
2019-02-08T10:30:51.000Z,23
2019-02-08T10:31:51.000Z,23
2019-02-08T10:32:51.000Z,23
2019-02-08T10:33:51.000Z,23
2019-02-08T10:34:51.000Z,23
2019-02-08T10:35:51.000Z,23
2019-02-08T10:37:51.000Z,23
2019-02-08T10:38:51.000Z,23
2019-02-08T10:39:51.000Z,23
2019-02-08T10:40:51.000Z,23
2019-02-08T10:41:51.000Z,23
2019-02-08T10:42:51.000Z,23
2019-02-08T10:43:51.000Z,23
2019-02-08T10:44:51.000Z,23
2019-02-08T10:45:51.000Z,23
2019-02-08T10:46:51.000Z,23
2019-02-08T10:47:51.000Z,23
2019-02-08T10:49:51.000Z,23
2019-02-08T10:50:51.000Z,23
2019-02-08T10:51:51.000Z,23
2019-02-08T10:52:51.000Z,23
2019-02-08T10:53:51.000Z,23
2019-02-08T10:54:51.000Z,23
2019-02-08T10:55:51.000Z,23
2019-02-08T10:56:51.000Z,23
2019-02-08T10:57:51.000Z,24
2019-02-08T10:58:51.000Z,24
2019-02-08T10:59:51.000Z,24
2019-02-08T11:00:51.000Z,24
2019-02-08T11:01:51.000Z,24
2019-02-08T11:02:51.000Z,24
2019-02-08T11:03:51.000Z,24
2019-02-08T11:04:51.000Z,24
2019-02-08T11:06:51.000Z,24
2019-02-08T11:07:51.000Z,24
2019-02-08T11:08:51.000Z,24
2019-02-08T11:09:51.000Z,24
2019-02-08T11:10:51.000Z,24
2019-02-08T11:11:51.000Z,24
2019-02-08T11:12:51.000Z,24
2019-02-08T11:13:51.000Z,24
2019-02-08T11:15:51.000Z,24
2019-02-08T11:16:51.000Z,24
2019-02-08T11:17:51.000Z,24
2019-02-08T11:19:51.000Z,24
2019-02-08T11:20:51.000Z,24
2019-02-08T11:22:51.000Z,24
2019-02-08T11:23:51.000Z,24
2019-02-08T11:24:51.000Z,24
2019-02-08T11:26:51.000Z,24
2019-02-08T11:27:51.000Z,24
2019-02-08T11:28:51.000Z,24
2019-02-08T11:29:51.000Z,24
2019-02-08T11:30:51.000Z,24
2019-02-08T11:31:51.000Z,24
2019-02-08T11:32:51.000Z,24
2019-02-08T11:33:51.000Z,24
2019-02-08T11:34:51.000Z,24
2019-02-08T11:35:51.000Z,24
2019-02-08T11:37:51.000Z,23
2019-02-08T11:38:51.000Z,23
2019-02-08T11:39:51.000Z,23
2019-02-08T11:40:51.000Z,23
2019-02-08T11:41:51.000Z,23
2019-02-08T11:42:51.000Z,23
2019-02-08T11:43:51.000Z,23
2019-02-08T11:44:51.000Z,23
2019-02-08T11:45:51.000Z,23
2019-02-08T11:47:51.000Z,23
2019-02-08T11:48:51.000Z,23
2019-02-08T11:50:51.000Z,23
2019-02-08T11:51:51.000Z,23
2019-02-08T11:53:51.000Z,23
2019-02-08T11:55:51.000Z,23
2019-02-08T11:56:51.000Z,23
2019-02-08T11:57:51.000Z,23
2019-02-08T11:58:51.000Z,23
2019-02-08T11:59:51.000Z,23
2019-02-08T12:01:51.000Z,23
2019-02-08T12:03:51.000Z,23
2019-02-08T12:04:51.000Z,23
2019-02-08T12:05:51.000Z,23
2019-02-08T12:06:51.000Z,23
2019-02-08T12:07:51.000Z,23
2019-02-08T12:08:51.000Z,23
2019-02-08T12:09:51.000Z,23
2019-02-08T12:10:51.000Z,23
2019-02-08T12:11:51.000Z,22
2019-02-08T12:12:51.000Z,22
2019-02-08T12:13:51.000Z,22
2019-02-08T12:14:51.000Z,22
2019-02-08T12:15:51.000Z,22
2019-02-08T12:17:51.000Z,22
2019-02-08T12:18:51.000Z,22
2019-02-08T12:19:51.000Z,22
2019-02-08T12:20:51.000Z,22
2019-02-08T12:22:51.000Z,22
2019-02-08T12:23:51.000Z,22
2019-02-08T12:24:51.000Z,22
2019-02-08T12:25:51.000Z,22
2019-02-08T12:26:51.000Z,22
2019-02-08T12:27:51.000Z,22
2019-02-08T12:28:51.000Z,21
2019-02-08T12:30:51.000Z,21
2019-02-08T12:31:51.000Z,22
2019-02-08T12:32:51.000Z,22
2019-02-08T12:33:51.000Z,22
2019-02-08T12:34:51.000Z,22
2019-02-08T12:36:51.000Z,22
2019-02-08T12:37:51.000Z,22
2019-02-08T12:38:51.000Z,22
2019-02-08T12:39:51.000Z,22
2019-02-08T12:40:51.000Z,23
2019-02-08T12:41:51.000Z,23
2019-02-08T12:42:51.000Z,23
2019-02-08T12:43:51.000Z,23
2019-02-08T12:44:51.000Z,23
2019-02-08T12:45:51.000Z,23
2019-02-08T12:46:51.000Z,23
2019-02-08T12:48:51.000Z,23
2019-02-08T12:49:51.000Z,23
2019-02-08T12:50:51.000Z,23
2019-02-08T12:51:51.000Z,23
2019-02-08T12:52:51.000Z,23
2019-02-08T12:54:51.000Z,23
2019-02-08T12:55:51.000Z,23
2019-02-08T12:56:51.000Z,23
2019-02-08T12:57:51.000Z,23
2019-02-08T12:59:51.000Z,24
2019-02-08T13:01:51.000Z,24
2019-02-08T13:02:51.000Z,24
2019-02-08T13:03:51.000Z,24
2019-02-08T13:05:51.000Z,24
2019-02-08T13:06:51.000Z,24
2019-02-08T13:07:51.000Z,24
2019-02-08T13:08:51.000Z,24
2019-02-08T13:10:51.000Z,24
2019-02-08T13:12:51.000Z,24
2019-02-08T13:13:51.000Z,24
2019-02-08T13:15:51.000Z,24
2019-02-08T13:16:51.000Z,24
2019-02-08T13:17:51.000Z,24
2019-02-08T13:18:51.000Z,24
2019-02-08T13:19:51.000Z,24
2019-02-08T13:21:51.000Z,24
2019-02-08T13:22:51.000Z,24
2019-02-08T13:23:51.000Z,24
2019-02-08T13:24:51.000Z,24
2019-02-08T13:25:51.000Z,24
2019-02-08T13:26:51.000Z,24
2019-02-08T13:28:51.000Z,24
2019-02-08T13:29:51.000Z,24
2019-02-08T13:31:51.000Z,23
2019-02-08T13:32:51.000Z,23
2019-02-08T13:33:51.000Z,23
2019-02-08T13:34:51.000Z,23
2019-02-08T13:36:51.000Z,23
2019-02-08T13:37:51.000Z,23
2019-02-08T13:38:51.000Z,23
2019-02-08T13:39:51.000Z,23
2019-02-08T13:40:51.000Z,23
2019-02-08T13:41:51.000Z,23
2019-02-08T13:42:51.000Z,23
2019-02-08T13:43:51.000Z,23
2019-02-08T13:44:51.000Z,23
2019-02-08T13:45:51.000Z,23
2019-02-08T13:46:51.000Z,23
2019-02-08T13:47:51.000Z,23
2019-02-08T13:48:51.000Z,23
2019-02-08T13:49:51.000Z,23
2019-02-08T13:50:51.000Z,23
2019-02-08T13:52:51.000Z,23
2019-02-08T13:53:51.000Z,23
2019-02-08T13:54:51.000Z,23
2019-02-08T13:55:51.000Z,23
2019-02-08T13:56:51.000Z,23
2019-02-08T13:57:51.000Z,23
2019-02-08T13:58:51.000Z,23
2019-02-08T13:59:51.000Z,23
2019-02-08T14:00:51.000Z,23
2019-02-08T14:01:51.000Z,23
2019-02-08T14:02:51.000Z,23
2019-02-08T14:03:51.000Z,23
2019-02-08T14:04:51.000Z,23
2019-02-08T14:05:51.000Z,23
2019-02-08T14:06:51.000Z,23
2019-02-08T14:07:51.000Z,23
2019-02-08T14:08:51.000Z,23
2019-02-08T14:09:51.000Z,23
2019-02-08T14:10:51.000Z,23
2019-02-08T14:11:51.000Z,23
2019-02-08T14:12:51.000Z,23
2019-02-08T14:13:51.000Z,23
2019-02-08T14:14:51.000Z,23
2019-02-08T14:15:51.000Z,23
2019-02-08T14:16:51.000Z,23
2019-02-08T14:17:51.000Z,23
2019-02-08T14:18:51.000Z,23
2019-02-08T14:19:51.000Z,23
2019-02-08T14:20:51.000Z,23
2019-02-08T14:21:51.000Z,23
2019-02-08T14:22:51.000Z,23
2019-02-08T14:23:51.000Z,23
2019-02-08T14:25:51.000Z,23
2019-02-08T14:26:51.000Z,23
2019-02-08T14:27:51.000Z,23
2019-02-08T14:28:51.000Z,23
2019-02-08T14:29:51.000Z,23
2019-02-08T14:30:51.000Z,23
2019-02-08T14:31:51.000Z,23
2019-02-08T14:32:51.000Z,23
2019-02-08T14:33:51.000Z,23
2019-02-08T14:34:51.000Z,23
2019-02-08T14:35:51.000Z,23
2019-02-08T14:36:51.000Z,23
2019-02-08T14:37:51.000Z,23
2019-02-08T14:38:51.000Z,23
2019-02-08T14:39:51.000Z,23
2019-02-08T14:40:51.000Z,23
2019-02-08T14:41:51.000Z,23
2019-02-08T14:42:51.000Z,23
2019-02-08T14:44:51.000Z,23
2019-02-08T14:45:51.000Z,23
2019-02-08T14:46:51.000Z,23
2019-02-08T14:47:51.000Z,23
2019-02-08T14:48:51.000Z,23
2019-02-08T14:49:51.000Z,23
2019-02-08T14:50:51.000Z,23
2019-02-08T14:51:51.000Z,23
2019-02-08T14:53:51.000Z,23
2019-02-08T14:55:51.000Z,23
2019-02-08T14:57:51.000Z,23
2019-02-08T14:58:51.000Z,23
2019-02-08T14:59:51.000Z,23
2019-02-08T15:00:51.000Z,23
2019-02-08T15:01:51.000Z,23
2019-02-08T15:03:51.000Z,23
2019-02-08T15:04:51.000Z,23
2019-02-08T15:05:51.000Z,23
2019-02-08T15:06:51.000Z,23
2019-02-08T15:07:51.000Z,23
2019-02-08T15:09:51.000Z,23
2019-02-08T15:10:51.000Z,23
2019-02-08T15:11:51.000Z,23
2019-02-08T15:12:51.000Z,23
2019-02-08T15:13:51.000Z,23
2019-02-08T15:14:51.000Z,23
2019-02-08T15:15:51.000Z,23
2019-02-08T15:16:51.000Z,23
2019-02-08T15:17:51.000Z,23
2019-02-08T15:18:51.000Z,23
2019-02-08T15:19:51.000Z,23
2019-02-08T15:20:51.000Z,23
2019-02-08T15:21:51.000Z,23
2019-02-08T15:22:51.000Z,23
2019-02-08T15:23:51.000Z,23
2019-02-08T15:24:51.000Z,23
2019-02-08T15:25:51.000Z,23
2019-02-08T15:26:51.000Z,23
2019-02-08T15:27:51.000Z,23
2019-02-08T15:29:51.000Z,23
2019-02-08T15:30:51.000Z,23
2019-02-08T15:31:51.000Z,23
2019-02-08T15:32:51.000Z,23
2019-02-08T15:33:51.000Z,23
2019-02-08T15:35:51.000Z,23
2019-02-08T15:36:51.000Z,23
2019-02-08T15:37:51.000Z,23
2019-02-08T15:38:51.000Z,23
2019-02-08T15:39:51.000Z,23
2019-02-08T15:40:51.000Z,23
2019-02-08T15:41:51.000Z,23
2019-02-08T15:42:51.000Z,23
2019-02-08T15:44:51.000Z,23
2019-02-08T15:45:51.000Z,23
2019-02-08T15:47:51.000Z,23
2019-02-08T15:48:51.000Z,23
2019-02-08T15:49:51.000Z,23
2019-02-08T15:50:51.000Z,23
2019-02-08T15:51:51.000Z,23